createdAt,value
2017-08-28T00:02:06.846Z,12.30
2017-08-28T00:04:34.359Z,13.53
2017-08-28T00:07:02.647Z,13.30
2017-08-28T00:09:37.235Z,12.70
2017-08-28T00:12:04.758Z,13.33
2017-08-28T00:14:33.043Z,14.00
2017-08-28T00:17:00.551Z,13.87
2017-08-28T00:19:29.027Z,13.96
2017-08-28T00:21:56.579Z,12.77
2017-08-28T00:24:24.117Z,13.83
2017-08-28T00:26:51.671Z,13.37
2017-08-28T00:29:19.224Z,13.47
2017-08-28T00:31:46.755Z,14.03
2017-08-28T00:34:15.179Z,12.70
2017-08-28T00:36:42.803Z,12.50
2017-08-28T00:39:14.118Z,11.70
2017-08-28T00:41:41.717Z,13.00
2017-08-28T00:44:09.301Z,11.60
2017-08-28T00:46:37.662Z,11.82
2017-08-28T00:49:05.227Z,11.47
2017-08-28T00:51:32.796Z,12.03
2017-08-28T00:54:00.312Z,12.10
2017-08-28T00:56:27.854Z,11.37
2017-08-28T00:58:59.654Z,12.20
2017-08-28T01:01:27.200Z,12.13
2017-08-28T01:03:54.748Z,12.10
2017-08-28T01:06:23.059Z,11.05
2017-08-28T01:08:51.535Z,10.73
2017-08-28T01:11:22.528Z,12.57
2017-08-28T01:13:50.053Z,10.73
2017-08-28T01:16:17.656Z,11.23
2017-08-28T01:18:45.167Z,12.03
2017-08-28T01:21:13.195Z,12.10
2017-08-28T01:23:40.963Z,11.05
2017-08-28T01:26:08.488Z,12.10
2017-08-28T01:28:36.044Z,12.70
2017-08-28T01:31:03.595Z,12.67
2017-08-28T01:33:31.143Z,11.90
2017-08-28T01:35:58.657Z,11.88
2017-08-28T01:38:26.291Z,12.77
2017-08-28T01:40:54.315Z,13.25
2017-08-28T01:43:21.852Z,12.95
2017-08-28T01:45:49.890Z,12.40
2017-08-28T01:48:18.293Z,11.40
2017-08-28T01:50:45.854Z,12.05
2017-08-28T01:53:13.670Z,12.50
2017-08-28T01:55:45.623Z,12.43
2017-08-28T01:58:13.140Z,11.73
2017-08-28T02:00:40.693Z,12.63
2017-08-28T02:03:08.455Z,11.95
2017-08-28T02:05:36.030Z,11.50
2017-08-28T02:08:03.543Z,12.13
2017-08-28T02:10:34.525Z,11.43
2017-08-28T02:13:02.052Z,12.33
2017-08-28T02:15:29.609Z,12.03
2017-08-28T02:17:57.793Z,13.43
2017-08-28T02:20:26.371Z,10.77
2017-08-28T02:22:54.661Z,12.03
2017-08-28T02:25:22.720Z,12.17
2017-08-28T02:27:52.995Z,11.47
2017-08-28T02:30:21.111Z,11.48
2017-08-28T02:32:48.632Z,12.57
2017-08-28T02:35:17.120Z,11.93
2017-08-28T02:37:44.691Z,12.20
2017-08-28T02:40:15.212Z,11.70
2017-08-28T02:42:43.251Z,12.00
2017-08-28T02:45:10.773Z,11.70
2017-08-28T02:47:38.291Z,11.38
2017-08-28T02:50:06.747Z,11.65
2017-08-28T02:52:34.271Z,11.48
2017-08-28T02:55:01.795Z,12.23
2017-08-28T02:57:29.321Z,11.13
2017-08-28T02:59:56.840Z,12.13
2017-08-28T03:02:24.390Z,11.50
2017-08-28T03:04:51.897Z,10.97
2017-08-28T03:07:19.948Z,11.93
2017-08-28T03:09:47.509Z,11.45
2017-08-28T03:12:15.067Z,12.25
2017-08-28T03:14:42.640Z,11.40
2017-08-28T03:17:10.924Z,12.80
2017-08-28T03:19:38.436Z,11.48
2017-08-28T03:22:05.956Z,11.10
2017-08-28T03:24:34.637Z,12.55
2017-08-28T03:27:05.027Z,12.43
2017-08-28T03:29:32.656Z,12.80
2017-08-28T03:32:00.363Z,11.83
2017-08-28T03:34:28.847Z,12.50
2017-08-28T03:36:56.375Z,11.60
2017-08-28T03:39:23.897Z,11.50
2017-08-28T03:41:55.778Z,11.30
2017-08-28T03:44:25.056Z,11.57
2017-08-28T03:46:52.588Z,11.43
2017-08-28T03:49:20.116Z,11.73
2017-08-28T03:51:48.562Z,11.50
2017-08-28T03:54:16.104Z,12.30
2017-08-28T03:56:45.016Z,11.13
2017-08-28T03:59:13.278Z,11.93
2017-08-28T04:01:40.815Z,11.13
2017-08-28T04:04:08.377Z,13.33
2017-08-28T04:06:36.752Z,12.10
2017-08-28T04:09:04.828Z,11.07
2017-08-28T04:11:32.914Z,12.20
2017-08-28T04:14:02.979Z,11.70
2017-08-28T04:16:30.491Z,11.70
2017-08-28T04:18:58.051Z,12.43
2017-08-28T04:21:27.265Z,11.87
2017-08-28T04:23:54.787Z,12.27
2017-08-28T04:26:22.327Z,11.77
2017-08-28T04:28:53.269Z,12.20
2017-08-28T04:31:20.806Z,11.93
2017-08-28T04:33:48.376Z,12.77
2017-08-28T04:36:16.470Z,13.37
2017-08-28T04:38:44.491Z,11.38
2017-08-28T04:41:12.005Z,12.00
2017-08-28T04:43:40.035Z,11.73
2017-08-28T04:46:07.556Z,11.30
2017-08-28T04:48:37.300Z,12.04
2017-08-28T04:51:04.844Z,11.00
2017-08-28T04:53:32.363Z,11.20
2017-08-28T04:56:01.207Z,11.70
2017-08-28T04:58:29.480Z,11.30
2017-08-28T05:00:57.003Z,11.20
2017-08-28T05:03:25.309Z,10.80
2017-08-28T05:05:53.676Z,11.20
2017-08-28T05:08:21.201Z,11.02
2017-08-28T05:10:49.652Z,11.25
2017-08-28T05:13:17.201Z,11.12
2017-08-28T05:15:44.731Z,10.60
2017-08-28T05:18:12.272Z,12.47
2017-08-28T05:20:39.790Z,10.70
2017-08-28T05:23:07.346Z,10.20
2017-08-28T05:25:34.895Z,11.03
2017-08-28T05:28:04.135Z,11.00
2017-08-28T05:30:32.080Z,9.70
2017-08-28T05:32:59.592Z,10.77
2017-08-28T05:35:28.090Z,11.52
2017-08-28T05:37:55.596Z,9.82
2017-08-28T05:40:23.152Z,10.50
2017-08-28T05:42:50.705Z,8.65
2017-08-28T05:45:18.251Z,10.25
2017-08-28T05:47:47.531Z,8.73
2017-08-28T05:50:15.041Z,9.10
2017-08-28T05:52:42.579Z,8.43
2017-08-28T05:55:10.107Z,9.10
2017-08-28T05:57:37.607Z,9.95
2017-08-28T06:00:06.796Z,8.40
2017-08-28T06:02:34.464Z,9.20
2017-08-28T06:05:02.011Z,8.07
2017-08-28T06:07:30.300Z,10.18
2017-08-28T06:09:57.875Z,8.83
2017-08-28T06:12:25.969Z,8.48
2017-08-28T06:14:56.704Z,9.37
2017-08-28T06:17:24.403Z,8.20
2017-08-28T06:19:51.962Z,9.50
2017-08-28T06:22:19.484Z,9.43
2017-08-28T06:24:47.033Z,9.97
2017-08-28T06:27:15.459Z,9.55
2017-08-28T06:29:47.482Z,8.77
2017-08-28T06:32:15.928Z,8.90
2017-08-28T06:34:43.473Z,8.57
2017-08-28T06:37:11.023Z,9.00
2017-08-28T06:39:38.533Z,8.33
2017-08-28T06:42:06.064Z,9.80
2017-08-28T06:44:37.755Z,9.50
2017-08-28T06:47:05.275Z,9.10
2017-08-28T06:49:32.888Z,10.07
2017-08-28T06:52:00.436Z,10.55
2017-08-28T06:54:27.955Z,8.97
2017-08-28T06:56:55.524Z,9.23
2017-08-28T06:59:24.740Z,10.10
2017-08-28T07:01:52.261Z,9.63
2017-08-28T07:04:19.843Z,10.00
2017-08-28T07:06:47.360Z,10.50
2017-08-28T07:09:14.897Z,9.93
2017-08-28T07:11:43.128Z,9.90
2017-08-28T07:14:10.655Z,10.17
2017-08-28T07:16:42.097Z,8.97
2017-08-28T07:19:09.807Z,9.43
2017-08-28T07:21:38.039Z,9.10
2017-08-28T07:24:05.602Z,10.63
2017-08-28T07:26:33.113Z,9.33
2017-08-28T07:29:00.648Z,9.03
2017-08-28T07:31:32.060Z,10.07
2017-08-28T07:34:02.538Z,9.43
2017-08-28T07:36:30.124Z,8.17
2017-08-28T07:38:58.703Z,8.00
2017-08-28T07:41:26.260Z,8.27
2017-08-28T07:43:53.825Z,8.27
2017-08-28T07:46:29.575Z,6.87
2017-08-28T07:48:57.108Z,7.90
2017-08-28T07:51:24.632Z,6.97
2017-08-28T07:53:52.150Z,7.60
2017-08-28T07:56:20.095Z,7.20
2017-08-28T07:58:48.515Z,7.00
2017-08-28T08:01:17.219Z,6.40
2017-08-28T08:03:44.731Z,7.22
2017-08-28T08:06:12.240Z,6.57
2017-08-28T08:08:39.800Z,5.93
2017-08-28T08:11:07.374Z,6.20
2017-08-28T08:13:35.391Z,5.37
2017-08-28T08:16:06.073Z,5.70
2017-08-28T08:18:33.588Z,6.30
2017-08-28T08:21:01.516Z,6.10
2017-08-28T08:23:29.519Z,6.33
2017-08-28T08:25:57.022Z,5.70
2017-08-28T08:28:24.572Z,5.50
2017-08-28T08:30:52.875Z,6.80
2017-08-28T08:36:22.619Z,4.93
2017-08-28T08:38:50.127Z,5.10
2017-08-28T08:41:20.291Z,4.80
2017-08-28T08:43:47.804Z,4.47
2017-08-28T08:46:15.779Z,4.80
2017-08-28T08:48:43.283Z,5.00
2017-08-28T08:51:10.799Z,4.37
2017-08-28T08:53:38.316Z,4.20
2017-08-28T08:56:05.856Z,4.57
2017-08-28T08:58:33.369Z,4.62
2017-08-28T09:01:00.915Z,4.00
2017-08-28T09:03:31.190Z,3.87
2017-08-28T09:08:33.544Z,3.72
2017-08-28T09:11:01.056Z,4.10
2017-08-28T09:13:28.568Z,3.90
2017-08-28T09:15:56.077Z,4.40
2017-08-28T09:18:23.637Z,4.07
2017-08-28T09:20:51.142Z,3.40
2017-08-28T09:23:18.656Z,3.87
2017-08-28T09:25:46.171Z,4.13
2017-08-28T09:28:14.243Z,3.60
2017-08-28T09:30:42.049Z,3.67
2017-08-28T09:33:09.581Z,3.42
2017-08-28T09:35:37.108Z,3.90
2017-08-28T09:38:04.627Z,3.80
2017-08-28T09:40:33.115Z,3.60
2017-08-28T09:43:00.636Z,4.10
2017-08-28T09:45:28.147Z,4.00
2017-08-28T09:47:55.683Z,3.60
2017-08-28T09:50:23.187Z,3.63
2017-08-28T09:52:50.940Z,3.50
2017-08-28T09:55:18.431Z,4.00
2017-08-28T09:57:47.632Z,3.60
2017-08-28T10:00:16.827Z,4.23
2017-08-28T10:02:44.332Z,4.43
2017-08-28T10:05:11.888Z,3.78
2017-08-28T10:07:39.407Z,4.10
2017-08-28T10:10:07.684Z,3.27
2017-08-28T10:12:36.881Z,3.97
2017-08-28T10:15:04.431Z,3.72
2017-08-28T10:17:31.930Z,4.17
2017-08-28T10:19:59.482Z,2.90
2017-08-28T10:22:26.993Z,3.77
2017-08-28T10:24:55.203Z,3.90
2017-08-28T10:27:22.224Z,4.20
2017-08-28T10:29:49.824Z,4.27
2017-08-28T10:32:17.659Z,4.13
2017-08-28T10:34:49.054Z,3.07
2017-08-28T10:37:16.559Z,3.47
2017-08-28T10:39:44.566Z,3.53
2017-08-28T10:42:12.068Z,3.20
2017-08-28T10:44:39.579Z,3.40
2017-08-28T10:47:07.847Z,3.50
2017-08-28T10:49:38.720Z,3.47
2017-08-28T10:52:06.228Z,3.47
2017-08-28T10:54:33.956Z,3.70
2017-08-28T10:57:01.475Z,3.90
2017-08-28T10:59:28.975Z,3.43
2017-08-28T11:01:56.527Z,3.83
2017-08-28T11:04:24.031Z,3.27
2017-08-28T11:06:51.542Z,3.37
2017-08-28T11:09:19.307Z,3.37
2017-08-28T11:11:47.252Z,3.40
2017-08-28T11:14:14.763Z,3.60
2017-08-28T11:16:42.332Z,3.10
2017-08-28T11:19:09.867Z,3.15
2017-08-28T11:21:37.388Z,3.00
2017-08-28T11:24:04.899Z,3.00
2017-08-28T11:26:32.472Z,2.83
2017-08-28T11:29:00.059Z,3.00
2017-08-28T11:31:27.592Z,2.95
2017-08-28T11:33:56.309Z,3.20
2017-08-28T11:36:23.814Z,3.33
2017-08-28T11:38:52.250Z,3.03
2017-08-28T11:41:20.080Z,2.92
2017-08-28T11:43:47.617Z,3.40
2017-08-28T11:46:15.143Z,2.80
2017-08-28T11:48:42.655Z,2.97
2017-08-28T11:51:14.396Z,2.90
2017-08-28T11:53:41.896Z,2.73
2017-08-28T11:56:09.467Z,2.63
2017-08-28T11:58:36.987Z,3.37
2017-08-28T12:01:04.508Z,2.83
2017-08-28T12:03:32.039Z,3.00
2017-08-28T12:05:59.558Z,3.10
2017-08-28T12:08:27.064Z,2.70
2017-08-28T12:10:54.584Z,2.90
2017-08-28T12:13:22.112Z,3.30
2017-08-28T12:15:49.621Z,3.30
2017-08-28T12:18:18.535Z,3.40
2017-08-28T12:20:46.046Z,3.00
2017-08-28T12:23:13.561Z,3.00
2017-08-28T12:25:41.120Z,3.37
2017-08-28T12:28:08.656Z,2.87
2017-08-28T12:30:36.714Z,3.07
2017-08-28T12:33:04.223Z,3.10
2017-08-28T12:35:32.271Z,3.03
2017-08-28T12:38:03.495Z,3.03
2017-08-28T12:40:31.659Z,3.97
2017-08-28T12:42:59.876Z,3.00
2017-08-28T12:45:27.380Z,3.33
2017-08-28T12:47:55.132Z,3.30
2017-08-28T12:50:22.640Z,3.50
2017-08-28T12:52:52.058Z,3.50
2017-08-28T12:55:19.627Z,3.33
2017-08-28T12:57:47.179Z,3.70
2017-08-28T13:00:15.421Z,3.93
2017-08-28T13:02:42.920Z,3.57
2017-08-28T13:05:10.474Z,3.40
2017-08-28T13:07:37.992Z,3.90
2017-08-28T13:10:05.621Z,4.33
2017-08-28T13:12:33.115Z,3.70
2017-08-28T13:15:00.956Z,3.63
2017-08-28T13:17:29.319Z,3.40
2017-08-28T13:19:56.828Z,4.27
2017-08-28T13:22:24.706Z,4.05
2017-08-28T13:24:52.303Z,4.03
2017-08-28T13:27:19.964Z,3.33
2017-08-28T13:29:48.223Z,3.80
2017-08-28T13:32:15.816Z,4.83
2017-08-28T13:34:43.363Z,4.50
2017-08-28T13:37:10.872Z,4.70
2017-08-28T13:39:38.771Z,4.30
2017-08-28T13:42:07.089Z,4.80
2017-08-28T13:44:34.658Z,4.53
2017-08-28T13:47:02.471Z,4.70
2017-08-28T13:49:30.493Z,4.57
2017-08-28T13:51:57.988Z,4.40
2017-08-28T13:54:26.416Z,4.47
2017-08-28T13:56:54.188Z,4.60
2017-08-28T13:59:22.457Z,4.87
2017-08-28T14:01:50.511Z,4.60
2017-08-28T14:04:18.043Z,4.33
2017-08-28T14:06:45.587Z,4.60
2017-08-28T14:09:13.087Z,5.00
2017-08-28T14:11:40.592Z,4.23
2017-08-28T14:14:08.092Z,4.40
2017-08-28T14:16:35.622Z,4.70
2017-08-28T14:19:03.132Z,4.13
2017-08-28T14:21:31.769Z,4.90
2017-08-28T14:23:59.477Z,4.30
2017-08-28T14:26:27.024Z,4.77
2017-08-28T14:28:54.601Z,5.17
2017-08-28T14:31:22.140Z,4.40
2017-08-28T14:33:49.673Z,4.20
2017-08-28T14:36:17.180Z,5.70
2017-08-28T14:38:44.692Z,4.60
2017-08-28T14:41:12.224Z,4.17
2017-08-28T14:43:39.723Z,4.73
2017-08-28T14:46:07.268Z,4.23
2017-08-28T14:48:35.961Z,4.37
2017-08-28T14:51:03.495Z,4.00
2017-08-28T14:53:31.759Z,5.33
2017-08-28T14:55:59.311Z,3.70
2017-08-28T14:58:26.855Z,4.20
2017-08-28T15:00:54.451Z,4.73
2017-08-28T15:03:21.958Z,3.90
2017-08-28T15:05:49.456Z,4.30
2017-08-28T15:08:16.980Z,4.43
2017-08-28T15:10:44.488Z,4.10
2017-08-28T15:13:12.072Z,4.57
2017-08-28T15:15:39.598Z,4.40
2017-08-28T15:18:07.872Z,4.27
2017-08-28T15:20:36.005Z,4.30
2017-08-28T15:23:03.515Z,4.47
2017-08-28T15:25:31.023Z,3.87
2017-08-28T15:27:58.563Z,4.40
2017-08-28T15:30:26.100Z,4.13
2017-08-28T15:32:53.608Z,3.80
2017-08-28T15:35:21.115Z,4.43
2017-08-28T15:37:49.523Z,4.73
2017-08-28T15:40:17.096Z,5.23
2017-08-28T15:42:44.624Z,5.28
2017-08-28T15:45:12.892Z,5.50
2017-08-28T15:47:40.451Z,7.85
2017-08-28T15:50:08.763Z,4.85
2017-08-28T15:52:36.284Z,5.30
2017-08-28T15:55:03.788Z,5.13
2017-08-28T15:57:31.299Z,5.47
2017-08-28T15:59:59.627Z,5.23
2017-08-28T16:02:27.744Z,5.57
2017-08-28T16:04:55.270Z,5.50
2017-08-28T16:07:22.779Z,5.53
2017-08-28T16:09:54.613Z,4.85
2017-08-28T16:12:22.791Z,4.60
2017-08-28T16:14:50.337Z,5.60
2017-08-28T16:17:17.840Z,4.70
2017-08-28T16:19:45.397Z,5.37
2017-08-28T16:22:12.975Z,5.30
2017-08-28T16:24:40.599Z,5.93
2017-08-28T16:27:08.106Z,5.97
2017-08-28T16:29:36.139Z,5.53
2017-08-28T16:32:03.754Z,5.20
2017-08-28T16:34:31.669Z,4.70
2017-08-28T16:36:59.182Z,5.65
2017-08-28T16:39:30.322Z,5.37
2017-08-28T16:41:57.850Z,5.10
2017-08-28T16:44:25.590Z,6.13
2017-08-28T16:46:53.172Z,4.90
2017-08-28T16:49:20.708Z,5.47
2017-08-28T16:51:48.287Z,5.10
2017-08-28T16:54:15.795Z,5.35
2017-08-28T16:56:43.329Z,6.07
2017-08-28T16:59:10.853Z,5.80
2017-08-28T17:01:38.362Z,5.60
2017-08-28T17:04:05.869Z,5.53
2017-08-28T17:06:34.168Z,4.70
2017-08-28T17:09:01.723Z,5.20
2017-08-28T17:11:29.224Z,5.37
2017-08-28T17:13:56.740Z,5.97
2017-08-28T17:16:25.567Z,4.60
2017-08-28T17:18:53.079Z,5.50
2017-08-28T17:21:20.656Z,5.45
2017-08-28T17:23:53.867Z,5.67
2017-08-28T17:26:21.375Z,5.03
2017-08-28T17:28:48.977Z,5.37
2017-08-28T17:31:16.541Z,6.75
2017-08-28T17:33:44.810Z,4.53
2017-08-28T17:36:12.959Z,5.97
2017-08-28T17:38:41.289Z,5.20
2017-08-28T17:41:08.796Z,5.77
2017-08-28T17:43:36.352Z,5.70
2017-08-28T17:46:03.872Z,6.47
2017-08-28T17:48:31.880Z,5.80
2017-08-28T17:50:59.389Z,6.20
2017-08-28T17:53:26.900Z,5.23
2017-08-28T17:55:54.427Z,5.10
2017-08-28T17:58:22.460Z,4.50
2017-08-28T18:00:49.992Z,5.30
2017-08-28T18:03:17.736Z,5.80
2017-08-28T18:05:46.347Z,4.30
2017-08-28T18:08:13.863Z,5.07
2017-08-28T18:10:41.370Z,5.50
2017-08-28T18:13:09.221Z,4.72
2017-08-28T18:15:36.759Z,5.37
2017-08-28T18:18:04.840Z,6.00
2017-08-28T18:20:32.380Z,5.20
2017-08-28T18:22:59.883Z,5.10
2017-08-28T18:25:27.392Z,5.60
2017-08-28T18:27:54.932Z,4.80
2017-08-28T18:30:23.205Z,6.00
2017-08-28T18:32:51.475Z,5.40
2017-08-28T18:35:19.208Z,5.50
2017-08-28T18:37:46.767Z,5.53
2017-08-28T18:40:14.271Z,6.23
2017-08-28T18:42:43.470Z,5.37
2017-08-28T18:45:11.764Z,5.43
2017-08-28T18:47:39.443Z,5.23
2017-08-28T18:50:07.560Z,5.22
2017-08-28T18:52:35.084Z,5.60
2017-08-28T18:55:02.636Z,6.13
2017-08-28T18:57:30.147Z,5.17
2017-08-28T18:59:57.692Z,6.05
2017-08-28T19:02:25.267Z,5.12
2017-08-28T19:04:52.771Z,5.00
2017-08-28T19:07:21.203Z,6.17
2017-08-28T19:09:48.725Z,6.13
2017-08-28T19:12:19.323Z,5.45
2017-08-28T19:14:46.839Z,4.93
2017-08-28T19:17:14.343Z,5.47
2017-08-28T19:19:41.929Z,5.13
2017-08-28T19:22:09.433Z,5.80
2017-08-28T19:24:36.996Z,6.30
2017-08-28T19:27:04.508Z,6.70
2017-08-28T19:29:32.050Z,5.23
2017-08-28T19:32:00.911Z,5.30
2017-08-28T19:34:28.829Z,5.50
2017-08-28T19:36:56.348Z,5.70
2017-08-28T19:39:25.488Z,4.80
2017-08-28T19:41:52.993Z,5.23
2017-08-28T19:44:20.556Z,5.57
2017-08-28T19:46:48.059Z,6.97
2017-08-28T19:49:15.580Z,7.47
2017-08-28T19:51:44.005Z,7.93
2017-08-28T19:54:11.515Z,13.60
2017-08-28T19:56:39.050Z,14.57
2017-08-28T19:59:06.636Z,10.40
2017-08-28T20:01:39.855Z,9.02
2017-08-28T20:04:07.410Z,7.63
2017-08-28T20:06:34.923Z,8.15
2017-08-28T20:09:03.361Z,6.78
2017-08-28T20:11:30.871Z,6.00
2017-08-28T20:13:58.416Z,6.40
2017-08-28T20:16:25.938Z,6.80
2017-08-28T20:18:53.459Z,5.90
2017-08-28T20:21:20.980Z,6.53
2017-08-28T20:23:48.486Z,6.33
2017-08-28T20:26:16.065Z,6.27
2017-08-28T20:28:43.567Z,6.73
2017-08-28T20:31:11.853Z,6.68
2017-08-28T20:33:39.572Z,7.77
2017-08-28T20:36:07.083Z,7.07
2017-08-28T20:38:34.632Z,7.83
2017-08-28T20:41:02.152Z,7.00
2017-08-28T20:43:31.387Z,7.95
2017-08-28T20:45:58.899Z,7.33
2017-08-28T20:48:27.213Z,7.17
2017-08-28T20:50:54.721Z,7.30
2017-08-28T20:53:22.236Z,7.67
2017-08-28T20:55:50.048Z,7.03
2017-08-28T20:58:17.577Z,7.40
2017-08-28T21:00:45.122Z,7.97
2017-08-28T21:03:12.653Z,8.30
2017-08-28T21:05:40.929Z,7.57
2017-08-28T21:08:09.806Z,8.30
2017-08-28T21:10:38.080Z,8.18
2017-08-28T21:13:05.599Z,10.20
2017-08-28T21:15:34.817Z,7.62
2017-08-28T21:18:02.321Z,8.80
2017-08-28T21:20:30.587Z,8.20
2017-08-28T21:22:58.608Z,8.82
2017-08-28T21:25:26.108Z,9.53
2017-08-28T21:27:53.624Z,8.97
2017-08-28T21:30:25.376Z,8.30
2017-08-28T21:32:54.228Z,7.50
2017-08-28T21:35:21.731Z,8.70
2017-08-28T21:37:49.243Z,9.37
2017-08-28T21:40:16.759Z,8.13
2017-08-28T21:42:44.275Z,9.07
2017-08-28T21:45:12.495Z,8.27
2017-08-28T21:47:40.116Z,8.40
2017-08-28T21:50:08.430Z,8.63
2017-08-28T21:52:35.947Z,9.57
2017-08-28T21:55:03.469Z,7.82
2017-08-28T21:57:31.900Z,9.52
2017-08-28T21:59:59.432Z,8.40
2017-08-28T22:02:26.935Z,8.37
2017-08-28T22:04:54.448Z,8.57
2017-08-28T22:07:22.520Z,7.82
2017-08-28T22:09:50.944Z,7.12
2017-08-28T22:12:18.458Z,8.40
2017-08-28T22:14:45.963Z,8.67
2017-08-28T22:17:13.471Z,8.70
2017-08-28T22:19:41.828Z,8.50
2017-08-28T22:22:09.331Z,8.00
2017-08-28T22:24:36.840Z,7.87
2017-08-28T22:27:04.815Z,7.87
2017-08-28T22:29:32.378Z,8.10
2017-08-28T22:32:04.421Z,8.10
2017-08-28T22:34:31.924Z,7.80
2017-08-28T22:36:59.904Z,8.23
2017-08-28T22:39:27.416Z,10.67
2017-08-28T22:41:55.443Z,8.50
2017-08-28T22:44:23.044Z,8.97
2017-08-28T22:46:53.960Z,7.53
2017-08-28T22:49:22.227Z,7.73
2017-08-28T22:51:50.511Z,8.13
2017-08-28T22:54:18.032Z,7.05
2017-08-28T22:56:45.543Z,6.97
2017-08-28T22:59:13.637Z,6.90
2017-08-28T23:01:41.151Z,7.78
2017-08-28T23:04:08.651Z,7.40
2017-08-28T23:06:36.188Z,8.13
2017-08-28T23:09:03.716Z,7.50
2017-08-28T23:11:31.223Z,7.70
2017-08-28T23:13:58.835Z,8.10
2017-08-28T23:16:26.341Z,7.70
2017-08-28T23:18:53.851Z,7.40
2017-08-28T23:21:22.770Z,8.77
2017-08-28T23:23:50.363Z,7.10
2017-08-28T23:26:17.871Z,6.57
2017-08-28T23:28:46.297Z,7.70
2017-08-28T23:31:13.812Z,7.30
2017-08-28T23:33:42.843Z,7.67
2017-08-28T23:36:10.360Z,7.55
2017-08-28T23:38:37.896Z,7.40
2017-08-28T23:41:05.791Z,7.80
2017-08-28T23:43:33.359Z,7.40
2017-08-28T23:46:01.101Z,7.70
2017-08-28T23:48:28.612Z,8.37
2017-08-28T23:50:56.295Z,7.70
2017-08-28T23:53:23.807Z,7.53
2017-08-28T23:55:51.369Z,9.13
2017-08-28T23:58:19.132Z,7.75
